createdAt,value
2018-11-01T00:00:09.687Z,0.00
2018-11-01T00:01:09.917Z,0.00
2018-11-01T00:02:10.151Z,0.00
2018-11-01T00:03:10.374Z,0.00
2018-11-01T00:04:10.603Z,0.00
2018-11-01T00:05:10.825Z,0.00
2018-11-01T00:06:11.043Z,0.00
2018-11-01T00:07:11.269Z,0.00
2018-11-01T00:08:11.492Z,0.00
2018-11-01T00:09:11.720Z,0.00
2018-11-01T00:10:11.944Z,0.00
2018-11-01T00:11:12.175Z,0.00
2018-11-01T00:12:12.396Z,0.00
2018-11-01T00:13:12.621Z,0.00
2018-11-01T00:14:12.895Z,0.00
2018-11-01T00:15:13.122Z,0.00
2018-11-01T00:16:13.349Z,0.00
2018-11-01T00:17:13.562Z,0.00
2018-11-01T00:18:13.787Z,0.00
2018-11-01T00:19:14.008Z,0.00
2018-11-01T00:20:14.236Z,0.00
2018-11-01T00:21:14.453Z,0.00
2018-11-01T00:22:14.678Z,0.00
2018-11-01T00:23:14.902Z,0.00
2018-11-01T00:24:15.127Z,0.00
2018-11-01T00:25:15.350Z,0.00
2018-11-01T00:26:15.576Z,0.00
2018-11-01T00:27:15.799Z,0.00
2018-11-01T00:28:16.028Z,0.00
2018-11-01T00:29:16.242Z,0.00
2018-11-01T00:30:16.465Z,0.00
2018-11-01T00:31:16.691Z,0.00
2018-11-01T00:32:16.916Z,0.00
2018-11-01T00:33:17.140Z,0.00
2018-11-01T00:34:17.365Z,0.00
2018-11-01T00:35:17.595Z,0.00
2018-11-01T00:36:17.813Z,0.00
2018-11-01T00:37:18.035Z,0.00
2018-11-01T00:38:18.262Z,0.00
2018-11-01T00:39:18.481Z,0.00
2018-11-01T00:40:18.706Z,0.00
2018-11-01T00:41:18.935Z,0.00
2018-11-01T00:42:19.151Z,0.00
2018-11-01T00:43:19.386Z,0.00
2018-11-01T00:44:19.599Z,0.00
2018-11-01T00:45:19.823Z,0.00
2018-11-01T00:46:20.046Z,0.00
2018-11-01T00:47:20.263Z,0.00
2018-11-01T00:48:20.485Z,0.00
2018-11-01T00:49:20.710Z,0.00
2018-11-01T00:50:20.932Z,0.00
2018-11-01T00:51:21.160Z,0.00
2018-11-01T00:52:21.379Z,0.00
2018-11-01T00:53:21.605Z,0.00
2018-11-01T00:54:21.825Z,0.00
2018-11-01T00:55:22.053Z,0.00
2018-11-01T00:56:22.274Z,0.00
2018-11-01T00:57:22.500Z,0.00
2018-11-01T00:58:22.724Z,0.00
2018-11-01T00:59:22.947Z,0.00
2018-11-01T01:00:23.171Z,0.00
2018-11-01T01:01:23.399Z,0.00
2018-11-01T01:02:23.618Z,0.00
2018-11-01T01:03:23.845Z,0.00
2018-11-01T01:04:24.066Z,0.00
2018-11-01T01:05:24.288Z,0.00
2018-11-01T01:06:24.511Z,0.00
2018-11-01T01:07:24.732Z,0.00
2018-11-01T01:08:24.960Z,0.00
2018-11-01T01:09:25.190Z,0.00
2018-11-01T01:10:25.421Z,0.00
2018-11-01T01:11:25.636Z,0.00
2018-11-01T01:12:25.861Z,0.00
2018-11-01T01:13:26.096Z,0.00
2018-11-01T01:14:26.303Z,0.00
2018-11-01T01:15:26.533Z,0.00
2018-11-01T01:16:26.751Z,0.00
2018-11-01T01:17:26.972Z,0.00
2018-11-01T01:18:27.196Z,0.00
2018-11-01T01:19:27.420Z,0.00
2018-11-01T01:20:27.643Z,0.00
2018-11-01T01:21:27.871Z,0.00
2018-11-01T01:22:28.104Z,0.00
2018-11-01T01:23:28.323Z,0.00
2018-11-01T01:24:28.540Z,0.00
2018-11-01T01:25:28.765Z,0.00
2018-11-01T01:26:28.989Z,0.00
2018-11-01T01:27:29.211Z,0.00
2018-11-01T01:28:29.427Z,0.00
2018-11-01T01:29:29.648Z,0.00
2018-11-01T01:30:29.869Z,0.00
2018-11-01T01:31:30.095Z,0.00
2018-11-01T01:32:30.312Z,0.00
2018-11-01T01:33:30.539Z,0.00
2018-11-01T01:34:30.784Z,0.00
2018-11-01T01:35:30.987Z,0.00
2018-11-01T01:36:31.205Z,0.00
2018-11-01T01:37:31.418Z,0.00
2018-11-01T01:38:31.642Z,0.00
2018-11-01T01:39:31.890Z,0.00
2018-11-01T01:40:32.103Z,0.00
2018-11-01T01:41:32.294Z,0.00
2018-11-01T01:42:32.520Z,0.00
2018-11-01T01:43:32.742Z,0.00
2018-11-01T01:44:32.974Z,0.00
2018-11-01T01:45:33.201Z,0.00
2018-11-01T01:46:33.420Z,0.00
2018-11-01T01:47:33.648Z,0.00
2018-11-01T01:48:33.874Z,0.00
2018-11-01T01:49:34.095Z,0.00
2018-11-01T01:50:34.372Z,0.00
2018-11-01T01:51:34.536Z,0.00
2018-11-01T01:52:34.763Z,0.00
2018-11-01T01:53:34.986Z,0.00
2018-11-01T01:54:35.205Z,0.00
2018-11-01T01:55:35.428Z,0.00
2018-11-01T01:56:35.655Z,0.00
2018-11-01T01:57:35.878Z,0.00
2018-11-01T01:58:36.102Z,0.00
2018-11-01T01:59:36.328Z,0.00
2018-11-01T02:00:36.543Z,0.00
2018-11-01T02:01:36.766Z,0.00
2018-11-01T02:02:36.992Z,0.00
2018-11-01T02:03:37.214Z,0.00
2018-11-01T02:04:37.435Z,0.00
2018-11-01T02:05:37.665Z,0.00
2018-11-01T02:06:37.882Z,0.00
2018-11-01T02:07:38.103Z,0.00
2018-11-01T02:08:38.328Z,0.00
2018-11-01T02:09:38.552Z,0.00
2018-11-01T02:10:38.774Z,0.00
2018-11-01T02:11:39.067Z,0.00
2018-11-01T02:12:39.226Z,0.00
2018-11-01T02:13:39.446Z,0.00
2018-11-01T02:14:39.669Z,0.00
2018-11-01T02:15:39.890Z,0.00
2018-11-01T02:16:40.120Z,0.00
2018-11-01T02:17:40.334Z,0.00
2018-11-01T02:18:40.559Z,0.00
2018-11-01T02:19:40.784Z,0.00
2018-11-01T02:20:41.008Z,0.00
2018-11-01T02:21:41.232Z,0.00
2018-11-01T02:22:41.457Z,0.00
2018-11-01T02:23:41.678Z,0.00
2018-11-01T02:24:41.901Z,0.00
2018-11-01T02:25:42.125Z,0.00
2018-11-01T02:26:42.350Z,0.00
2018-11-01T02:27:42.574Z,0.00
2018-11-01T02:28:42.798Z,0.00
2018-11-01T02:29:43.022Z,0.00
2018-11-01T02:30:43.247Z,0.00
2018-11-01T02:31:43.471Z,0.00
2018-11-01T02:32:43.691Z,0.00
2018-11-01T02:33:43.909Z,0.00
2018-11-01T02:34:44.136Z,0.00
2018-11-01T02:35:44.358Z,0.00
2018-11-01T02:36:44.586Z,0.00
2018-11-01T02:37:44.820Z,0.00
2018-11-01T02:38:45.094Z,0.00
2018-11-01T02:39:45.254Z,0.00
2018-11-01T02:40:45.477Z,0.00
2018-11-01T02:41:45.700Z,0.00
2018-11-01T02:42:45.923Z,0.00
2018-11-01T02:43:46.150Z,0.00
2018-11-01T02:44:46.368Z,0.00
2018-11-01T02:45:46.594Z,0.00
2018-11-01T02:46:46.819Z,0.00
2018-11-01T02:47:47.044Z,0.00
2018-11-01T02:48:47.267Z,0.00
2018-11-01T02:49:47.478Z,0.00
2018-11-01T02:50:47.705Z,0.00
2018-11-01T02:51:47.931Z,0.00
2018-11-01T02:52:48.151Z,0.00
2018-11-01T02:53:48.379Z,0.00
2018-11-01T02:54:48.599Z,0.00
2018-11-01T02:55:48.823Z,0.00
2018-11-01T02:56:49.041Z,0.00
2018-11-01T02:57:49.265Z,0.00
2018-11-01T02:58:49.491Z,0.00
2018-11-01T02:59:49.846Z,0.00
2018-11-01T03:00:49.934Z,0.00
2018-11-01T03:01:50.158Z,0.00
2018-11-01T03:02:50.390Z,0.00
2018-11-01T03:03:50.603Z,0.00
2018-11-01T03:04:50.819Z,0.00
2018-11-01T03:05:51.050Z,0.00
2018-11-01T03:06:51.272Z,0.00
2018-11-01T03:07:51.494Z,0.00
2018-11-01T03:08:51.719Z,0.00
2018-11-01T03:09:51.936Z,0.00
2018-11-01T03:10:52.160Z,0.00
2018-11-01T03:11:52.382Z,0.00
2018-11-01T03:12:52.608Z,0.00
2018-11-01T03:13:52.826Z,0.00
2018-11-01T03:14:53.050Z,0.00
2018-11-01T03:15:53.275Z,0.00
2018-11-01T03:16:53.533Z,0.00
2018-11-01T03:17:53.716Z,0.00
2018-11-01T03:18:53.947Z,0.00
2018-11-01T03:19:54.175Z,0.00
2018-11-01T03:20:54.388Z,0.00
2018-11-01T03:21:54.622Z,0.00
2018-11-01T03:22:54.831Z,0.00
2018-11-01T03:23:55.051Z,0.00
2018-11-01T03:24:55.275Z,0.00
2018-11-01T03:25:55.496Z,0.00
2018-11-01T03:26:55.716Z,0.00
2018-11-01T03:27:55.940Z,0.00
2018-11-01T03:28:56.164Z,0.00
2018-11-01T03:29:56.393Z,0.00
2018-11-01T03:30:56.610Z,0.00
2018-11-01T03:31:56.828Z,0.00
2018-11-01T03:32:57.053Z,0.00
2018-11-01T03:33:57.270Z,0.00
2018-11-01T03:34:57.497Z,0.00
2018-11-01T03:35:57.718Z,0.00
2018-11-01T03:36:57.943Z,0.00
2018-11-01T03:37:58.185Z,0.00
2018-11-01T03:38:58.472Z,0.00
2018-11-01T03:39:58.611Z,0.00
2018-11-01T03:40:58.834Z,0.00
2018-11-01T03:41:59.055Z,0.00
2018-11-01T03:42:59.272Z,0.00
2018-11-01T03:43:59.499Z,0.00
2018-11-01T03:44:59.725Z,0.00
2018-11-01T03:45:59.943Z,0.00
2018-11-01T03:47:00.168Z,0.00
2018-11-01T03:48:00.390Z,0.00
2018-11-01T03:49:00.612Z,0.00
2018-11-01T03:50:00.837Z,0.00
2018-11-01T03:51:01.056Z,0.00
2018-11-01T03:52:01.356Z,0.00
2018-11-01T03:53:01.510Z,0.00
2018-11-01T03:54:01.737Z,0.00
2018-11-01T03:55:01.953Z,0.00
2018-11-01T03:56:02.165Z,0.00
2018-11-01T03:57:02.391Z,0.00
2018-11-01T03:58:02.619Z,0.00
2018-11-01T03:59:02.847Z,0.00
2018-11-01T04:00:03.064Z,0.00
2018-11-01T04:01:03.301Z,0.00
2018-11-01T04:02:03.516Z,0.00
2018-11-01T04:03:03.750Z,0.00
2018-11-01T04:04:03.954Z,0.00
2018-11-01T04:05:04.178Z,0.00
2018-11-01T04:06:04.403Z,0.00
2018-11-01T04:07:04.614Z,0.00
2018-11-01T04:08:04.846Z,0.00
2018-11-01T04:09:05.071Z,0.00
2018-11-01T04:10:05.296Z,0.00
2018-11-01T04:11:05.525Z,0.00
2018-11-01T04:12:05.742Z,0.00
2018-11-01T04:13:05.964Z,0.00
2018-11-01T04:14:06.194Z,0.00
2018-11-01T04:15:06.446Z,0.00
2018-11-01T04:16:06.636Z,0.00
2018-11-01T04:17:06.901Z,0.00
2018-11-01T04:18:07.081Z,0.00
2018-11-01T04:19:07.306Z,0.00
2018-11-01T04:20:07.529Z,0.00
2018-11-01T04:21:07.761Z,0.00
2018-11-01T04:22:07.976Z,0.00
2018-11-01T04:23:08.270Z,0.00
2018-11-01T04:24:08.423Z,0.00
2018-11-01T04:25:08.644Z,0.00
2018-11-01T04:26:08.868Z,0.00
2018-11-01T04:27:09.083Z,0.00
2018-11-01T04:28:09.315Z,0.00
2018-11-01T04:29:09.531Z,0.00
2018-11-01T04:30:09.748Z,0.00
2018-11-01T04:31:09.984Z,0.00
2018-11-01T04:32:10.195Z,0.00
2018-11-01T04:33:10.468Z,0.00
2018-11-01T04:34:10.644Z,0.00
2018-11-01T04:35:10.871Z,0.00
2018-11-01T04:36:11.111Z,0.00
2018-11-01T04:37:11.316Z,0.00
2018-11-01T04:38:11.539Z,0.00
2018-11-01T04:39:11.760Z,0.00
2018-11-01T04:40:11.984Z,0.00
2018-11-01T04:41:12.199Z,0.00
2018-11-01T04:42:12.428Z,0.00
2018-11-01T04:43:12.668Z,0.00
2018-11-01T04:44:12.869Z,0.00
2018-11-01T04:45:13.126Z,0.00
2018-11-01T04:46:13.363Z,0.00
2018-11-01T04:47:13.574Z,0.00
2018-11-01T04:48:13.755Z,0.00
2018-11-01T04:49:13.979Z,0.00
2018-11-01T04:50:14.212Z,0.00
2018-11-01T04:51:14.419Z,0.00
2018-11-01T04:52:14.637Z,0.00
2018-11-01T04:53:14.858Z,0.00
2018-11-01T04:54:15.080Z,0.00
2018-11-01T04:55:15.304Z,0.00
2018-11-01T04:56:15.533Z,0.00
2018-11-01T04:57:15.747Z,0.00
2018-11-01T04:58:15.972Z,0.00
2018-11-01T04:59:16.196Z,0.00
2018-11-01T05:00:16.424Z,0.00
2018-11-01T05:01:16.640Z,0.00
2018-11-01T05:02:16.862Z,0.00
2018-11-01T05:03:17.084Z,0.00
2018-11-01T05:04:17.309Z,0.00
2018-11-01T05:05:17.527Z,0.00
2018-11-01T05:06:17.755Z,0.00
2018-11-01T05:07:17.991Z,0.00
2018-11-01T05:08:18.186Z,0.00
2018-11-01T05:09:18.423Z,0.00
2018-11-01T05:10:18.643Z,0.00
2018-11-01T05:11:18.863Z,0.00
2018-11-01T05:12:19.084Z,0.00
2018-11-01T05:13:19.317Z,0.00
2018-11-01T05:14:19.535Z,0.00
2018-11-01T05:15:19.823Z,0.00
2018-11-01T05:16:19.978Z,0.00
2018-11-01T05:17:20.197Z,0.00
2018-11-01T05:18:20.418Z,0.00
2018-11-01T05:19:20.643Z,0.00
2018-11-01T05:20:20.916Z,0.00
2018-11-01T05:21:21.086Z,0.00
2018-11-01T05:22:21.306Z,0.00
2018-11-01T05:23:21.530Z,0.00
2018-11-01T05:24:21.753Z,0.00
2018-11-01T05:25:21.975Z,0.00
2018-11-01T05:26:22.202Z,0.00
2018-11-01T05:27:22.425Z,0.00
2018-11-01T05:28:22.652Z,0.00
2018-11-01T05:29:22.900Z,0.00
2018-11-01T05:30:23.092Z,0.00
2018-11-01T05:31:23.324Z,0.00
2018-11-01T05:32:23.545Z,0.00
2018-11-01T05:33:23.769Z,0.00
2018-11-01T05:34:23.999Z,0.00
2018-11-01T05:35:24.216Z,4.00
2018-11-01T05:36:24.443Z,4.00
2018-11-01T05:37:24.659Z,4.00
2018-11-01T05:38:24.883Z,0.00
2018-11-01T05:39:25.111Z,4.00
2018-11-01T05:40:25.329Z,4.00
2018-11-01T05:41:25.561Z,0.00
2018-11-01T05:42:25.773Z,4.00
2018-11-01T05:43:25.995Z,8.00
2018-11-01T05:44:26.233Z,4.00
2018-11-01T05:45:26.440Z,8.00
2018-11-01T05:46:26.665Z,8.00
2018-11-01T05:47:26.878Z,8.00
2018-11-01T05:48:27.106Z,8.00
2018-11-01T05:49:27.338Z,12.00
2018-11-01T05:50:27.542Z,16.00
2018-11-01T05:51:27.766Z,16.00
2018-11-01T05:52:27.981Z,16.00
2018-11-01T05:53:28.208Z,20.00
2018-11-01T05:54:28.417Z,24.00
2018-11-01T05:55:28.640Z,28.00
2018-11-01T05:56:28.868Z,32.00
2018-11-01T05:57:29.090Z,36.00
2018-11-01T05:58:29.310Z,44.00
2018-11-01T05:59:29.537Z,48.00
2018-11-01T06:00:29.764Z,52.00
2018-11-01T06:01:29.978Z,64.00
2018-11-01T06:02:30.203Z,68.00
2018-11-01T06:03:30.431Z,76.00
2018-11-01T06:04:30.657Z,84.00
2018-11-01T06:05:30.935Z,92.00
2018-11-01T06:06:31.098Z,104.00
2018-11-01T06:07:31.324Z,120.00
2018-11-01T06:08:31.545Z,136.00
2018-11-01T06:09:31.762Z,152.00
2018-11-01T06:10:31.986Z,160.00
2018-11-01T06:11:32.207Z,176.00
2018-11-01T06:12:32.526Z,192.00
2018-11-01T06:13:32.658Z,212.00
2018-11-01T06:14:32.884Z,224.00
2018-11-01T06:15:33.109Z,240.00
2018-11-01T06:16:33.325Z,252.00
2018-11-01T06:17:33.546Z,260.00
2018-11-01T06:18:33.766Z,272.00
2018-11-01T06:19:33.991Z,280.00
2018-11-01T06:20:34.318Z,296.00
2018-11-01T06:21:34.432Z,312.00
2018-11-01T06:22:34.662Z,328.00
2018-11-01T06:23:34.878Z,348.00
2018-11-01T06:24:35.103Z,372.00
2018-11-01T06:25:35.326Z,396.00
2018-11-01T06:26:35.545Z,416.00
2018-11-01T06:27:35.772Z,440.00
2018-11-01T06:28:35.981Z,464.00
2018-11-01T06:29:36.218Z,496.00
2018-11-01T06:30:36.443Z,524.00
2018-11-01T06:31:36.664Z,560.00
2018-11-01T06:32:36.892Z,600.00
2018-11-01T06:33:37.113Z,640.00
2018-11-01T06:34:37.344Z,680.00
2018-11-01T06:35:37.555Z,720.00
2018-11-01T06:36:37.779Z,760.00
2018-11-01T06:37:38.006Z,800.00
2018-11-01T06:38:38.230Z,840.00
2018-11-01T06:39:38.454Z,876.00
2018-11-01T06:40:38.683Z,908.00
2018-11-01T06:41:38.901Z,936.00
2018-11-01T06:42:39.123Z,972.00
2018-11-01T06:43:39.350Z,1000.00
2018-11-01T06:44:39.578Z,1024.00
2018-11-01T06:45:39.792Z,1048.00
2018-11-01T06:46:40.013Z,1076.00
2018-11-01T06:47:40.237Z,1100.00
2018-11-01T06:48:40.464Z,1132.00
2018-11-01T06:49:40.688Z,1156.00
2018-11-01T06:50:40.914Z,1184.00
2018-11-01T06:51:41.143Z,1220.00
2018-11-01T06:52:41.360Z,1272.00
2018-11-01T06:53:41.580Z,1332.00
2018-11-01T06:54:41.804Z,1388.00
2018-11-01T06:55:42.028Z,1428.00
2018-11-01T06:56:42.269Z,1452.00
2018-11-01T06:57:42.477Z,1464.00
2018-11-01T06:58:42.718Z,1484.00
2018-11-01T06:59:42.919Z,1520.00
2018-11-01T07:00:43.145Z,1564.00
2018-11-01T07:01:43.373Z,1616.00
2018-11-01T07:02:43.597Z,1672.00
2018-11-01T07:03:43.817Z,1756.00
2018-11-01T07:04:44.043Z,1868.00
2018-11-01T07:05:44.325Z,1972.00
2018-11-01T07:06:44.506Z,2036.00
2018-11-01T07:07:44.712Z,2076.00
2018-11-01T07:08:44.935Z,2116.00
2018-11-01T07:09:45.156Z,2168.00
2018-11-01T07:10:45.381Z,2236.00
2018-11-01T07:11:45.599Z,2312.00
2018-11-01T07:12:45.829Z,2384.00
2018-11-01T07:13:46.052Z,2452.00
2018-11-01T07:14:46.282Z,2512.00
2018-11-01T07:15:46.499Z,2572.00
2018-11-01T07:16:46.725Z,2652.00
2018-11-01T07:17:47.095Z,2728.00
2018-11-01T07:18:47.158Z,2800.00
2018-11-01T07:19:47.386Z,2836.00
2018-11-01T07:20:47.606Z,2864.00
2018-11-01T07:21:47.832Z,2892.00
2018-11-01T07:22:48.058Z,2924.00
2018-11-01T07:23:48.286Z,2960.00
2018-11-01T07:24:48.510Z,3016.00
2018-11-01T07:25:48.780Z,3088.00
2018-11-01T07:26:48.956Z,3172.00
2018-11-01T07:27:49.183Z,3256.00
2018-11-01T07:28:49.407Z,3316.00
2018-11-01T07:29:49.630Z,3368.00
2018-11-01T07:30:49.854Z,3408.00
2018-11-01T07:31:50.081Z,3436.00
2018-11-01T07:32:50.438Z,3452.00
2018-11-01T07:33:50.531Z,3472.00
2018-11-01T07:34:50.755Z,3492.00
2018-11-01T07:35:50.978Z,3512.00
2018-11-01T07:36:51.199Z,3552.00
2018-11-01T07:37:51.427Z,3588.00
2018-11-01T07:38:51.646Z,3628.00
2018-11-01T07:39:51.931Z,3664.00
2018-11-01T07:40:52.098Z,3736.00
2018-11-01T07:41:52.321Z,3824.00
2018-11-01T07:42:52.543Z,3900.00
2018-11-01T07:43:52.768Z,3944.00
2018-11-01T07:44:52.989Z,3972.00
2018-11-01T07:45:53.212Z,3984.00
2018-11-01T07:46:53.436Z,3984.00
2018-11-01T07:47:53.664Z,3996.00
2018-11-01T07:48:53.888Z,4024.00
2018-11-01T07:49:54.130Z,4064.00
2018-11-01T07:50:54.333Z,4116.00
2018-11-01T07:51:54.559Z,4180.00
2018-11-01T07:52:54.845Z,4236.00
2018-11-01T07:53:55.004Z,4280.00
2018-11-01T07:54:55.227Z,4324.00
2018-11-01T07:55:55.449Z,4356.00
2018-11-01T07:56:55.675Z,4376.00
2018-11-01T07:57:55.898Z,4376.00
2018-11-01T07:58:56.121Z,4392.00
2018-11-01T07:59:56.346Z,4412.00
2018-11-01T08:00:56.575Z,4452.00
2018-11-01T08:01:56.792Z,4472.00
2018-11-01T08:02:57.012Z,4496.00
2018-11-01T08:03:57.245Z,4500.00
2018-11-01T08:04:57.465Z,4504.00
2018-11-01T08:05:57.826Z,4524.00
2018-11-01T08:06:57.914Z,4540.00
2018-11-01T08:07:58.139Z,4560.00
2018-11-01T08:08:58.363Z,4584.00
2018-11-01T08:09:58.593Z,4600.00
2018-11-01T08:10:58.813Z,4604.00
2018-11-01T08:11:59.038Z,4624.00
2018-11-01T08:12:59.260Z,4640.00
2018-11-01T08:13:59.485Z,4640.00
2018-11-01T08:14:59.705Z,4612.00
2018-11-01T08:15:59.934Z,4572.00
2018-11-01T08:17:00.155Z,4516.00
2018-11-01T08:18:00.383Z,4468.00
2018-11-01T08:19:00.608Z,4424.00
2018-11-01T08:20:00.983Z,4364.00
2018-11-01T08:21:01.212Z,4304.00
2018-11-01T08:22:01.284Z,4264.00
2018-11-01T08:23:01.508Z,4236.00
2018-11-01T08:24:01.747Z,4220.00
2018-11-01T08:25:01.958Z,4204.00
2018-11-01T08:26:02.184Z,4184.00
2018-11-01T08:27:02.409Z,4176.00
2018-11-01T08:28:02.693Z,4168.00
2018-11-01T08:29:02.859Z,4164.00
2018-11-01T08:30:03.084Z,4168.00
2018-11-01T08:31:03.308Z,4188.00
2018-11-01T08:32:03.536Z,4208.00
2018-11-01T08:33:03.760Z,4224.00
2018-11-01T08:34:03.984Z,4236.00
2018-11-01T08:35:04.211Z,4244.00
2018-11-01T08:36:04.478Z,4264.00
2018-11-01T08:37:04.663Z,4280.00
2018-11-01T08:38:04.893Z,4312.00
2018-11-01T08:39:05.123Z,4352.00
2018-11-01T08:40:05.336Z,4412.00
2018-11-01T08:41:05.580Z,4492.00
2018-11-01T08:42:05.780Z,4580.00
2018-11-01T08:43:06.009Z,4668.00
2018-11-01T08:44:06.243Z,4752.00
2018-11-01T08:45:06.474Z,4844.00
2018-11-01T08:46:06.697Z,4944.00
2018-11-01T08:47:06.937Z,5048.00
2018-11-01T08:48:07.151Z,5168.00
2018-11-01T08:49:07.375Z,5272.00
2018-11-01T08:50:07.645Z,5336.00
2018-11-01T08:51:07.822Z,5360.00
2018-11-01T08:52:08.050Z,5360.00
2018-11-01T08:53:08.274Z,5344.00
2018-11-01T08:54:08.500Z,5312.00
2018-11-01T08:55:08.728Z,5256.00
2018-11-01T08:56:08.955Z,5184.00
2018-11-01T08:57:09.183Z,5116.00
2018-11-01T08:58:09.408Z,5048.00
2018-11-01T08:59:09.631Z,4992.00
2018-11-01T09:00:09.855Z,4952.00
2018-11-01T09:01:10.083Z,4928.00
2018-11-01T09:02:10.308Z,4900.00
2018-11-01T09:03:10.535Z,4856.00
2018-11-01T09:04:10.830Z,4808.00
2018-11-01T09:05:10.986Z,4736.00
2018-11-01T09:06:11.210Z,4672.00
2018-11-01T09:07:11.437Z,4624.00
2018-11-01T09:08:11.760Z,4584.00
2018-11-01T09:09:11.889Z,4572.00
2018-11-01T09:10:12.115Z,4576.00
2018-11-01T09:11:12.339Z,4588.00
2018-11-01T09:12:12.568Z,4592.00
2018-11-01T09:13:12.886Z,4580.00
2018-11-01T09:14:13.041Z,4564.00
2018-11-01T09:15:13.248Z,4552.00
2018-11-01T09:16:13.475Z,4548.00
2018-11-01T09:17:13.705Z,4548.00
2018-11-01T09:18:13.921Z,4552.00
2018-11-01T09:19:14.201Z,4564.00
2018-11-01T09:20:14.399Z,4576.00
2018-11-01T09:21:14.625Z,4588.00
2018-11-01T09:22:14.846Z,4596.00
2018-11-01T09:23:15.076Z,4596.00
2018-11-01T09:24:15.294Z,4596.00
2018-11-01T09:25:15.524Z,4592.00
2018-11-01T09:26:15.744Z,4592.00
2018-11-01T09:27:15.995Z,4580.00
2018-11-01T09:28:16.197Z,4584.00
2018-11-01T09:29:16.427Z,4584.00
2018-11-01T09:30:16.651Z,4564.00
2018-11-01T09:31:16.877Z,4528.00
2018-11-01T09:32:17.102Z,4468.00
2018-11-01T09:33:17.329Z,4392.00
2018-11-01T09:34:17.556Z,4312.00
2018-11-01T09:35:17.784Z,4252.00
2018-11-01T09:36:18.009Z,4184.00
2018-11-01T09:37:18.238Z,4096.00
2018-11-01T09:38:18.463Z,4004.00
2018-11-01T09:39:18.688Z,3916.00
2018-11-01T09:40:18.917Z,3860.00
2018-11-01T09:41:19.142Z,3832.00
2018-11-01T09:42:19.364Z,3832.00
2018-11-01T09:43:19.591Z,3852.00
2018-11-01T09:44:19.817Z,3864.00
2018-11-01T09:45:20.044Z,3876.00
2018-11-01T09:46:20.401Z,3888.00
2018-11-01T09:47:20.964Z,3900.00
2018-11-01T09:48:20.731Z,3912.00
2018-11-01T09:49:20.951Z,3924.00
2018-11-01T09:50:21.179Z,3940.00
2018-11-01T09:51:21.407Z,3960.00
2018-11-01T09:52:21.632Z,3984.00
2018-11-01T09:53:21.858Z,4020.00
2018-11-01T09:54:22.087Z,4068.00
2018-11-01T09:55:22.316Z,4120.00
2018-11-01T09:56:22.632Z,4176.00
2018-11-01T09:57:22.763Z,4248.00
2018-11-01T09:58:22.992Z,4340.00
2018-11-01T09:59:23.218Z,4456.00
2018-11-01T10:00:23.446Z,4604.00
2018-11-01T10:01:23.672Z,4764.00
2018-11-01T10:02:23.900Z,4936.00
2018-11-01T10:03:24.127Z,5084.00
2018-11-01T10:04:24.356Z,5196.00
2018-11-01T10:05:24.582Z,5272.00
2018-11-01T10:06:24.808Z,5328.00
2018-11-01T10:07:25.035Z,5372.00
2018-11-01T10:08:25.261Z,5404.00
2018-11-01T10:09:25.486Z,5448.00
2018-11-01T10:10:25.716Z,5504.00
2018-11-01T10:11:25.943Z,5576.00
2018-11-01T10:12:26.170Z,5644.00
2018-11-01T10:13:26.396Z,5712.00
2018-11-01T10:14:26.623Z,5776.00
2018-11-01T10:15:27.038Z,5828.00
2018-11-01T10:16:27.193Z,5864.00
2018-11-01T10:17:27.725Z,5876.00
2018-11-01T10:18:27.912Z,5856.00
2018-11-01T10:19:27.757Z,5808.00
2018-11-01T10:20:27.984Z,5728.00
2018-11-01T10:21:28.344Z,5632.00
2018-11-01T10:22:28.539Z,5528.00
2018-11-01T10:23:28.661Z,5420.00
2018-11-01T10:24:28.891Z,5332.00
2018-11-01T10:25:29.178Z,5280.00
2018-11-01T10:26:29.340Z,5260.00
2018-11-01T10:27:29.570Z,5280.00
2018-11-01T10:28:29.793Z,5300.00
2018-11-01T10:29:30.023Z,5336.00
2018-11-01T10:30:30.249Z,5368.00
2018-11-01T10:31:30.475Z,5396.00
2018-11-01T10:32:30.706Z,5432.00
2018-11-01T10:33:30.930Z,5496.00
2018-11-01T10:34:31.159Z,5596.00
2018-11-01T10:35:31.387Z,5700.00
2018-11-01T10:36:31.615Z,5772.00
2018-11-01T10:37:31.841Z,5812.00
2018-11-01T10:38:32.068Z,5796.00
2018-11-01T10:39:32.295Z,5712.00
2018-11-01T10:40:32.528Z,5576.00
2018-11-01T10:41:32.757Z,5460.00
2018-11-01T10:42:32.979Z,5420.00
2018-11-01T10:43:33.210Z,5492.00
2018-11-01T10:44:33.439Z,5616.00
2018-11-01T10:45:33.663Z,5688.00
2018-11-01T10:46:33.894Z,5704.00
2018-11-01T10:47:34.151Z,5680.00
2018-11-01T10:48:34.346Z,5652.00
2018-11-01T10:49:34.572Z,5636.00
2018-11-01T10:50:34.802Z,5612.00
2018-11-01T10:51:35.030Z,5552.00
2018-11-01T10:52:35.254Z,5460.00
2018-11-01T10:53:35.498Z,5372.00
2018-11-01T10:54:35.704Z,5276.00
2018-11-01T10:55:35.936Z,5164.00
2018-11-01T10:56:36.163Z,5036.00
2018-11-01T10:57:36.392Z,4944.00
2018-11-01T10:58:36.623Z,4916.00
2018-11-01T10:59:36.844Z,4944.00
2018-11-01T11:00:37.114Z,5016.00
2018-11-01T11:01:37.299Z,5068.00
2018-11-01T11:02:37.528Z,5060.00
2018-11-01T11:03:37.758Z,4988.00
2018-11-01T11:04:37.985Z,4964.00
2018-11-01T11:05:38.213Z,5020.00
2018-11-01T11:06:38.510Z,5152.00
2018-11-01T11:07:38.666Z,5340.00
2018-11-01T11:08:38.892Z,5504.00
2018-11-01T11:09:39.121Z,5564.00
2018-11-01T11:10:39.348Z,5552.00
2018-11-01T11:11:39.576Z,5504.00
2018-11-01T11:12:39.804Z,5476.00
2018-11-01T11:13:40.031Z,5460.00
2018-11-01T11:14:40.343Z,5436.00
2018-11-01T11:15:40.489Z,5444.00
2018-11-01T11:16:40.715Z,5508.00
2018-11-01T11:17:40.949Z,5560.00
2018-11-01T11:18:41.206Z,5564.00
2018-11-01T11:19:41.397Z,5532.00
2018-11-01T11:20:41.952Z,5460.00
2018-11-01T11:21:41.852Z,5368.00
2018-11-01T11:22:42.079Z,5300.00
2018-11-01T11:23:42.307Z,5272.00
2018-11-01T11:24:42.533Z,5268.00
2018-11-01T11:25:42.760Z,5316.00
2018-11-01T11:26:42.990Z,5432.00
2018-11-01T11:27:43.214Z,5584.00
2018-11-01T11:28:43.443Z,5736.00
2018-11-01T11:29:43.671Z,5860.00
2018-11-01T11:30:43.939Z,5904.00
2018-11-01T11:31:44.124Z,5880.00
2018-11-01T11:32:44.353Z,5788.00
2018-11-01T11:33:44.584Z,5652.00
2018-11-01T11:34:44.810Z,5512.00
2018-11-01T11:35:45.050Z,5420.00
2018-11-01T11:36:45.266Z,5376.00
2018-11-01T11:37:45.495Z,5372.00
2018-11-01T11:38:45.743Z,5388.00
2018-11-01T11:39:46.081Z,5392.00
2018-11-01T11:40:46.204Z,5360.00
2018-11-01T11:41:46.432Z,5284.00
2018-11-01T11:42:46.660Z,5160.00
2018-11-01T11:43:46.898Z,4988.00
2018-11-01T11:44:47.119Z,4780.00
2018-11-01T11:45:47.349Z,4544.00
2018-11-01T11:46:47.575Z,4316.00
2018-11-01T11:47:47.804Z,4132.00
2018-11-01T11:48:48.029Z,4016.00
2018-11-01T11:49:48.258Z,3972.00
2018-11-01T11:50:48.489Z,3964.00
2018-11-01T11:51:48.716Z,3936.00
2018-11-01T11:52:48.941Z,3852.00
2018-11-01T11:53:49.169Z,3736.00
2018-11-01T11:54:49.398Z,3632.00
2018-11-01T11:55:49.625Z,3572.00
2018-11-01T11:56:49.892Z,3552.00
2018-11-01T11:57:50.083Z,3544.00
2018-11-01T11:58:50.310Z,3540.00
2018-11-01T11:59:50.539Z,3540.00
2018-11-01T12:00:50.769Z,3556.00
2018-11-01T12:01:50.995Z,3540.00
2018-11-01T12:02:51.217Z,3520.00
2018-11-01T12:03:51.442Z,3496.00
2018-11-01T12:04:51.672Z,3460.00
2018-11-01T12:05:51.982Z,3388.00
2018-11-01T12:06:52.146Z,3316.00
2018-11-01T12:07:52.370Z,3276.00
2018-11-01T12:08:52.600Z,3264.00
2018-11-01T12:09:52.829Z,3248.00
2018-11-01T12:10:53.051Z,3192.00
2018-11-01T12:11:53.279Z,3112.00
2018-11-01T12:12:53.513Z,3044.00
2018-11-01T12:13:53.740Z,3000.00
2018-11-01T12:14:53.963Z,3000.00
2018-11-01T12:15:54.191Z,3032.00
2018-11-01T12:16:54.426Z,3060.00
2018-11-01T12:17:54.653Z,3072.00
2018-11-01T12:18:54.878Z,3096.00
2018-11-01T12:19:55.110Z,3160.00
2018-11-01T12:20:55.335Z,3188.00
2018-11-01T12:21:55.564Z,3120.00
2018-11-01T12:22:55.790Z,2992.00
2018-11-01T12:23:56.021Z,2860.00
2018-11-01T12:24:56.252Z,2780.00
2018-11-01T12:25:56.478Z,2760.00
2018-11-01T12:26:56.708Z,2804.00
2018-11-01T12:27:56.934Z,2936.00
2018-11-01T12:28:57.235Z,3132.00
2018-11-01T12:29:57.391Z,3368.00
2018-11-01T12:30:57.617Z,3656.00
2018-11-01T12:31:57.845Z,3976.00
2018-11-01T12:32:58.075Z,4272.00
2018-11-01T12:33:58.303Z,4560.00
2018-11-01T12:34:58.567Z,4848.00
2018-11-01T12:35:58.766Z,5156.00
2018-11-01T12:36:58.983Z,5492.00
2018-11-01T12:37:59.212Z,5884.00
2018-11-01T12:38:59.437Z,6268.00
2018-11-01T12:39:59.662Z,6568.00
2018-11-01T12:40:59.886Z,6724.00
2018-11-01T12:42:00.101Z,6768.00